sensor_id;sensor_type;location;lat;lon;timestamp;pressure;altitude;pressure_sealevel;temperature;humidity
48774;BME280;34576;0.000;0.000;2022-09-13T00:01:39;96289.91;;;21.19;54.39
48774;BME280;34576;0.000;0.000;2022-09-13T00:08:39;96291.00;;;21.18;54.42
48774;BME280;34576;0.000;0.000;2022-09-13T00:15:44;96270.09;;;21.20;54.56
48774;BME280;34576;0.000;0.000;2022-09-13T00:22:44;96279.69;;;21.21;54.17
48774;BME280;34576;0.000;0.000;2022-09-13T00:29:45;96278.13;;;21.20;54.10
48774;BME280;34576;0.000;0.000;2022-09-13T00:36:45;96283.47;;;21.20;54.03
48774;BME280;34576;0.000;0.000;2022-09-13T00:43:50;96269.63;;;21.18;53.85
48774;BME280;34576;0.000;0.000;2022-09-13T00:50:51;96272.75;;;21.20;53.46
48774;BME280;34576;0.000;0.000;2022-09-13T00:57:54;96274.97;;;21.18;53.47
48774;BME280;34576;0.000;0.000;2022-09-13T01:04:57;96273.38;;;21.17;53.46
48774;BME280;34576;0.000;0.000;2022-09-13T01:12:02;96281.09;;;21.18;53.48
48774;BME280;34576;0.000;0.000;2022-09-13T01:19:07;96280.31;;;21.18;53.53
48774;BME280;34576;0.000;0.000;2022-09-13T01:26:19;96287.22;;;21.19;52.65
48774;BME280;34576;0.000;0.000;2022-09-13T01:33:48;96283.31;;;21.16;53.04
48774;BME280;34576;0.000;0.000;2022-09-13T01:48:02;96273.69;;;21.15;52.88
48774;BME280;34576;0.000;0.000;2022-09-13T01:55:41;96282.03;;;21.14;52.64
48774;BME280;34576;0.000;0.000;2022-09-13T02:09:37;96287.06;;;21.15;52.89
48774;BME280;34576;0.000;0.000;2022-09-13T02:16:40;96283.09;;;21.13;52.38
48774;BME280;34576;0.000;0.000;2022-09-13T02:23:43;96286.25;;;21.15;52.84
48774;BME280;34576;0.000;0.000;2022-09-13T02:30:47;96290.81;;;21.14;52.50
48774;BME280;34576;0.000;0.000;2022-09-13T02:38:11;96286.25;;;21.15;52.51
48774;BME280;34576;0.000;0.000;2022-09-13T02:45:10;96280.13;;;21.14;52.31
48774;BME280;34576;0.000;0.000;2022-09-13T03:06:20;96266.28;;;21.12;52.35
48774;BME280;34576;0.000;0.000;2022-09-13T03:20:28;96254.78;;;21.12;52.26
48774;BME280;34576;0.000;0.000;2022-09-13T03:41:46;96252.09;;;21.12;51.90
48774;BME280;34576;0.000;0.000;2022-09-13T03:48:50;96241.44;;;21.20;53.04
48774;BME280;34576;0.000;0.000;2022-09-13T03:55:51;96244.63;;;21.23;52.99
48774;BME280;34576;0.000;0.000;2022-09-13T04:02:51;96240.66;;;21.20;53.17
48774;BME280;34576;0.000;0.000;2022-09-13T04:09:52;96246.31;;;21.18;53.67
48774;BME280;34576;0.000;0.000;2022-09-13T04:16:55;96228.22;;;21.15;53.69
48774;BME280;34576;0.000;0.000;2022-09-13T04:23:56;96225.84;;;21.14;53.58
48774;BME280;34576;0.000;0.000;2022-09-13T04:30:56;96243.59;;;21.10;51.63
48774;BME280;34576;0.000;0.000;2022-09-13T04:37:56;96239.50;;;21.03;52.03
48774;BME280;34576;0.000;0.000;2022-09-13T04:44:57;96246.19;;;19.77;52.92
48774;BME280;34576;0.000;0.000;2022-09-13T04:51:57;96259.34;;;19.60;52.99
48774;BME280;34576;0.000;0.000;2022-09-13T04:58:58;96257.03;;;19.25;53.68
48774;BME280;34576;0.000;0.000;2022-09-13T05:06:02;96254.25;;;20.42;51.79
48774;BME280;34576;0.000;0.000;2022-09-13T05:13:02;96249.44;;;20.66;51.50
48774;BME280;34576;0.000;0.000;2022-09-13T05:20:03;96246.97;;;20.70;51.92
48774;BME280;34576;0.000;0.000;2022-09-13T05:27:04;96250.59;;;20.74;52.12
48774;BME280;34576;0.000;0.000;2022-09-13T05:34:06;96250.19;;;20.81;52.33
48774;BME280;34576;0.000;0.000;2022-09-13T05:41:06;96231.69;;;20.71;52.63
48774;BME280;34576;0.000;0.000;2022-09-13T05:48:06;96221.38;;;20.78;52.08
48774;BME280;34576;0.000;0.000;2022-09-13T05:55:07;96214.94;;;20.79;52.00
48774;BME280;34576;0.000;0.000;2022-09-13T06:02:08;96208.97;;;20.82;51.89
48774;BME280;34576;0.000;0.000;2022-09-13T06:09:09;96224.53;;;20.80;52.20
48774;BME280;34576;0.000;0.000;2022-09-13T06:16:11;96223.25;;;20.77;52.02
48774;BME280;34576;0.000;0.000;2022-09-13T06:23:11;96212.16;;;20.84;52.34
48774;BME280;34576;0.000;0.000;2022-09-13T06:30:12;96206.97;;;20.88;52.16
48774;BME280;34576;0.000;0.000;2022-09-13T06:37:14;96216.09;;;20.86;52.03
48774;BME280;34576;0.000;0.000;2022-09-13T06:44:14;96209.34;;;20.89;52.15
48774;BME280;34576;0.000;0.000;2022-09-13T06:51:16;96207.94;;;20.92;52.73
48774;BME280;34576;0.000;0.000;2022-09-13T06:58:17;96208.75;;;20.92;52.63
48774;BME280;34576;0.000;0.000;2022-09-13T07:05:17;96201.81;;;20.91;52.84
48774;BME280;34576;0.000;0.000;2022-09-13T07:12:19;96188.91;;;20.93;52.68
48774;BME280;34576;0.000;0.000;2022-09-13T07:19:23;96190.38;;;20.99;53.25
48774;BME280;34576;0.000;0.000;2022-09-13T07:26:26;96191.94;;;21.00;53.17
48774;BME280;34576;0.000;0.000;2022-09-13T07:33:30;96191.53;;;21.07;52.77
48774;BME280;34576;0.000;0.000;2022-09-13T07:40:30;96191.81;;;21.06;54.09
48774;BME280;34576;0.000;0.000;2022-09-13T07:47:32;96183.50;;;21.07;54.42
48774;BME280;34576;0.000;0.000;2022-09-13T07:54:32;96190.59;;;21.12;53.36
48774;BME280;34576;0.000;0.000;2022-09-13T08:01:38;96183.06;;;21.14;54.32
48774;BME280;34576;0.000;0.000;2022-09-13T08:08:39;96186.84;;;21.13;54.36
48774;BME280;34576;0.000;0.000;2022-09-13T08:15:39;96184.63;;;21.15;54.51
48774;BME280;34576;0.000;0.000;2022-09-13T08:22:40;96182.44;;;21.17;54.41
48774;BME280;34576;0.000;0.000;2022-09-13T08:29:40;96183.22;;;21.17;54.79
48774;BME280;34576;0.000;0.000;2022-09-13T08:36:40;96179.47;;;21.18;54.85
48774;BME280;34576;0.000;0.000;2022-09-13T08:44:02;96168.94;;;21.22;55.24
48774;BME280;34576;0.000;0.000;2022-09-13T08:51:05;96171.31;;;21.24;55.68
48774;BME280;34576;0.000;0.000;2022-09-13T09:05:28;96140.19;;;21.28;55.15
48774;BME280;34576;0.000;0.000;2022-09-13T09:12:36;96132.00;;;21.33;54.74
48774;BME280;34576;0.000;0.000;2022-09-13T09:19:39;96137.53;;;21.36;54.13
48774;BME280;34576;0.000;0.000;2022-09-13T09:26:41;96166.81;;;21.42;54.29
48774;BME280;34576;0.000;0.000;2022-09-13T09:40:45;96188.53;;;21.49;54.88
48774;BME280;34576;0.000;0.000;2022-09-13T09:47:45;96199.47;;;21.52;55.41
48774;BME280;34576;0.000;0.000;2022-09-13T09:54:48;96196.47;;;21.54;55.60
48774;BME280;34576;0.000;0.000;2022-09-13T10:01:49;96189.88;;;21.60;55.82
48774;BME280;34576;0.000;0.000;2022-09-13T10:08:54;96201.53;;;21.64;55.57
48774;BME280;34576;0.000;0.000;2022-09-13T10:15:56;96179.81;;;21.66;55.89
48774;BME280;34576;0.000;0.000;2022-09-13T10:23:39;96172.59;;;21.66;56.05
48774;BME280;34576;0.000;0.000;2022-09-13T10:37:39;96140.31;;;21.71;56.13
48774;BME280;34576;0.000;0.000;2022-09-13T10:44:42;96125.50;;;21.74;56.39
48774;BME280;34576;0.000;0.000;2022-09-13T10:51:44;96114.97;;;21.78;56.83
48774;BME280;34576;0.000;0.000;2022-09-13T10:58:44;96104.41;;;21.81;56.95
48774;BME280;34576;0.000;0.000;2022-09-13T11:06:29;96097.47;;;21.80;56.58
48774;BME280;34576;0.000;0.000;2022-09-13T11:27:28;96069.16;;;21.88;56.07
48774;BME280;34576;0.000;0.000;2022-09-13T11:49:21;96051.19;;;21.88;55.55
48774;BME280;34576;0.000;0.000;2022-09-13T11:56:28;96040.78;;;21.87;55.52
48774;BME280;34576;0.000;0.000;2022-09-13T12:04:05;96048.38;;;21.85;55.57
48774;BME280;34576;0.000;0.000;2022-09-13T12:18:20;96054.19;;;21.87;56.09
48774;BME280;34576;0.000;0.000;2022-09-13T12:25:23;96059.53;;;21.87;56.20
48774;BME280;34576;0.000;0.000;2022-09-13T12:32:24;96064.88;;;21.87;56.49
48774;BME280;34576;0.000;0.000;2022-09-13T12:39:28;96060.31;;;21.87;56.17
48774;BME280;34576;0.000;0.000;2022-09-13T12:46:40;96067.25;;;21.88;56.40
48774;BME280;34576;0.000;0.000;2022-09-13T12:53:56;96081.91;;;21.91;56.17
48774;BME280;34576;0.000;0.000;2022-09-13T13:08:02;96090.06;;;21.95;56.46
48774;BME280;34576;0.000;0.000;2022-09-13T13:29:34;96072.91;;;22.04;56.35
48774;BME280;34576;0.000;0.000;2022-09-13T13:43:40;96071.34;;;22.03;56.54
48774;BME280;34576;0.000;0.000;2022-09-13T13:58:00;96044.09;;;22.01;56.96
48774;BME280;34576;0.000;0.000;2022-09-13T14:12:30;96019.84;;;21.98;57.07
48774;BME280;34576;0.000;0.000;2022-09-13T14:19:39;96010.22;;;21.97;56.96
48774;BME280;34576;0.000;0.000;2022-09-13T14:26:41;95996.53;;;21.98;57.12
48774;BME280;34576;0.000;0.000;2022-09-13T14:33:41;95992.44;;;22.01;56.91
48774;BME280;34576;0.000;0.000;2022-09-13T14:40:45;95985.50;;;22.00;56.85
48774;BME280;34576;0.000;0.000;2022-09-13T14:48:05;95976.69;;;21.99;56.53
48774;BME280;34576;0.000;0.000;2022-09-13T14:55:10;95977.00;;;21.98;56.42
48774;BME280;34576;0.000;0.000;2022-09-13T15:02:20;95975.88;;;21.99;56.68
48774;BME280;34576;0.000;0.000;2022-09-13T15:09:25;95965.50;;;21.97;57.01
48774;BME280;34576;0.000;0.000;2022-09-13T15:16:30;95957.44;;;21.97;56.92
48774;BME280;34576;0.000;0.000;2022-09-13T15:30:37;95936.03;;;21.97;57.39
48774;BME280;34576;0.000;0.000;2022-09-13T15:37:38;95932.25;;;21.98;57.27
48774;BME280;34576;0.000;0.000;2022-09-13T15:44:38;95922.31;;;21.99;57.45
48774;BME280;34576;0.000;0.000;2022-09-13T15:51:40;95928.47;;;21.99;57.57
48774;BME280;34576;0.000;0.000;2022-09-13T15:58:41;95918.72;;;22.03;57.84
48774;BME280;34576;0.000;0.000;2022-09-13T16:05:41;95907.66;;;22.05;58.30
48774;BME280;34576;0.000;0.000;2022-09-13T16:12:42;95893.47;;;22.04;58.43
48774;BME280;34576;0.000;0.000;2022-09-13T16:19:42;95887.66;;;22.02;58.79
48774;BME280;34576;0.000;0.000;2022-09-13T16:26:42;95876.97;;;22.02;58.84
48774;BME280;34576;0.000;0.000;2022-09-13T16:33:43;95863.56;;;22.02;59.02
48774;BME280;34576;0.000;0.000;2022-09-13T16:40:43;95869.69;;;22.03;58.97
48774;BME280;34576;0.000;0.000;2022-09-13T16:47:44;95879.63;;;22.02;58.93
48774;BME280;34576;0.000;0.000;2022-09-13T16:54:44;95860.13;;;22.02;58.75
48774;BME280;34576;0.000;0.000;2022-09-13T17:01:50;95862.00;;;22.01;58.80
48774;BME280;34576;0.000;0.000;2022-09-13T17:08:51;95864.66;;;22.01;58.89
48774;BME280;34576;0.000;0.000;2022-09-13T17:15:52;95866.56;;;22.01;58.98
48774;BME280;34576;0.000;0.000;2022-09-13T17:22:52;95881.06;;;22.00;58.80
48774;BME280;34576;0.000;0.000;2022-09-13T17:29:52;95897.13;;;22.00;59.16
48774;BME280;34576;0.000;0.000;2022-09-13T17:36:53;95894.41;;;22.09;60.11
48774;BME280;34576;0.000;0.000;2022-09-13T17:43:53;95910.66;;;22.03;59.76
48774;BME280;34576;0.000;0.000;2022-09-13T17:50:58;95902.63;;;22.03;59.76
48774;BME280;34576;0.000;0.000;2022-09-13T17:57:59;95904.50;;;22.03;59.99
48774;BME280;34576;0.000;0.000;2022-09-13T18:04:59;95890.34;;;22.02;60.08
48774;BME280;34576;0.000;0.000;2022-09-13T18:11:59;95882.75;;;22.04;60.47
48774;BME280;34576;0.000;0.000;2022-09-13T18:18:59;95888.13;;;22.04;60.64
48774;BME280;34576;0.000;0.000;2022-09-13T18:26:01;95893.47;;;22.04;60.51
48774;BME280;34576;0.000;0.000;2022-09-13T18:33:02;95893.47;;;22.04;60.63
48774;BME280;34576;0.000;0.000;2022-09-13T18:40:02;95912.22;;;22.04;60.68
48774;BME280;34576;0.000;0.000;2022-09-13T18:47:05;95903.41;;;22.04;61.89
48774;BME280;34576;0.000;0.000;2022-09-13T18:54:07;95911.78;;;22.02;62.36
48774;BME280;34576;0.000;0.000;2022-09-13T19:01:13;95922.16;;;22.04;62.07
48774;BME280;34576;0.000;0.000;2022-09-13T19:08:14;95925.16;;;22.02;61.33
48774;BME280;34576;0.000;0.000;2022-09-13T19:15:14;95912.53;;;22.03;62.47
48774;BME280;34576;0.000;0.000;2022-09-13T19:22:15;95926.25;;;22.01;61.74
48774;BME280;34576;0.000;0.000;2022-09-13T19:29:17;95934.28;;;22.01;60.62
48774;BME280;34576;0.000;0.000;2022-09-13T19:36:22;95947.34;;;22.03;60.24
48774;BME280;34576;0.000;0.000;2022-09-13T19:43:22;95948.47;;;22.02;59.81
48774;BME280;34576;0.000;0.000;2022-09-13T19:50:22;95946.09;;;22.00;60.08
48774;BME280;34576;0.000;0.000;2022-09-13T19:57:23;95946.91;;;22.01;60.34
48774;BME280;34576;0.000;0.000;2022-09-13T20:04:23;95953.84;;;22.02;60.08
48774;BME280;34576;0.000;0.000;2022-09-13T20:11:25;95958.88;;;22.03;60.63
48774;BME280;34576;0.000;0.000;2022-09-13T20:18:30;95954.63;;;22.02;60.08
48774;BME280;34576;0.000;0.000;2022-09-13T20:25:31;95945.50;;;22.03;61.01
48774;BME280;34576;0.000;0.000;2022-09-13T20:32:32;95945.50;;;22.03;60.64
48774;BME280;34576;0.000;0.000;2022-09-13T20:39:32;95948.63;;;22.05;61.56
48774;BME280;34576;0.000;0.000;2022-09-13T20:46:33;95954.63;;;22.02;62.62
48774;BME280;34576;0.000;0.000;2022-09-13T20:53:33;95938.56;;;22.02;61.85
48774;BME280;34576;0.000;0.000;2022-09-13T21:00:34;95943.13;;;22.02;62.28
48774;BME280;34576;0.000;0.000;2022-09-13T21:07:35;95947.69;;;22.01;61.76
48774;BME280;34576;0.000;0.000;2022-09-13T21:14:53;95934.28;;;22.01;62.11
48774;BME280;34576;0.000;0.000;2022-09-13T21:21:54;95947.34;;;22.03;61.65
48774;BME280;34576;0.000;0.000;2022-09-13T21:28:55;95940.13;;;22.03;61.88
48774;BME280;34576;0.000;0.000;2022-09-13T21:36:00;95929.41;;;22.03;61.12
48774;BME280;34576;0.000;0.000;2022-09-13T21:43:00;95924.84;;;22.04;61.27
48774;BME280;34576;0.000;0.000;2022-09-13T21:50:00;95910.34;;;22.05;61.17
48774;BME280;34576;0.000;0.000;2022-09-13T21:57:01;95910.66;;;22.03;61.21
48774;BME280;34576;0.000;0.000;2022-09-13T22:04:02;95902.63;;;22.03;60.81
48774;BME280;34576;0.000;0.000;2022-09-13T22:11:06;95902.28;;;22.14;60.30
48774;BME280;34576;0.000;0.000;2022-09-13T22:18:06;95890.47;;;22.06;60.77
48774;BME280;34576;0.000;0.000;2022-09-13T22:25:07;95881.66;;;22.05;60.48
48774;BME280;34576;0.000;0.000;2022-09-13T22:32:07;95883.25;;;22.06;60.54
48774;BME280;34576;0.000;0.000;2022-09-13T22:39:11;95873.00;;;22.09;60.23
48774;BME280;34576;0.000;0.000;2022-09-13T22:46:22;95856.47;;;22.06;60.16
48774;BME280;34576;0.000;0.000;2022-09-13T22:53:23;95865.59;;;22.05;59.46
48774;BME280;34576;0.000;0.000;2022-09-13T23:00:23;95872.06;;;22.04;59.02
48774;BME280;34576;0.000;0.000;2022-09-13T23:07:23;95879.16;;;22.09;59.86
48774;BME280;34576;0.000;0.000;2022-09-13T23:14:24;95890.47;;;22.06;59.29
48774;BME280;34576;0.000;0.000;2022-09-13T23:21:28;95882.16;;;22.08;59.51
48774;BME280;34576;0.000;0.000;2022-09-13T23:28:30;95874.13;;;22.08;59.48
48774;BME280;34576;0.000;0.000;2022-09-13T23:35:30;95854.25;;;22.09;59.42
48774;BME280;34576;0.000;0.000;2022-09-13T23:42:30;95832.38;;;22.06;58.96
48774;BME280;34576;0.000;0.000;2022-09-13T23:49:31;95829.69;;;22.06;59.09
48774;BME280;34576;0.000;0.000;2022-09-13T23:56:31;95831.06;;;22.13;59.33
